Terminal Aerodrome Forecast
Issued by NWS Charleston, WV

Home | Current Version | Previous Version | Text Only | Print | Product List | Glossary On
Versions: 1 2 3 4 5 6 7 8 9 10 11 12 13 14 15 16 17 18 19 20 21 22 23 24
631
FTUS41 KRLX 240917 AAA
TAFCRW
TAF AMD
KCRW 240917Z 2409/2506 24003KT P6SM SCT070
      TEMPO 2410/2412 3SM BR SCT001
     FM241300 24005KT P6SM SCT050
     FM241700 25008KT P6SM BKN050
     FM242300 30005KT P6SM SCT250=

USA.gov is the U.S. government's official web portal to all federal, state and local government web resources and services.